createdAt,value
2023-03-12T00:02:06.845Z,94108.22
2023-03-12T00:05:00.866Z,94110.72
2023-03-12T00:07:47.852Z,94112.34
2023-03-12T00:10:27.849Z,94104.03
2023-03-12T00:13:21.845Z,94112.47
2023-03-12T00:16:17.873Z,94112.34
2023-03-12T00:18:53.955Z,94114.03
2023-03-12T00:21:40.853Z,94108.09
2023-03-12T00:24:14.932Z,94112.22
2023-03-12T00:27:01.861Z,94109.72
2023-03-12T00:29:34.937Z,94117.19
2023-03-12T00:32:21.899Z,94111.31
2023-03-12T00:34:59.030Z,94112.09
2023-03-12T00:37:45.852Z,94109.63
2023-03-12T00:40:19.949Z,94105.41
2023-03-12T00:43:06.836Z,94093.72
2023-03-12T00:45:39.966Z,94100.41
2023-03-12T00:48:33.844Z,94097.75
2023-03-12T00:51:27.880Z,94099.41
2023-03-12T00:54:15.096Z,94100.28
2023-03-12T00:56:48.010Z,94112.81
2023-03-12T00:59:34.853Z,94116.97
2023-03-12T01:02:07.937Z,94116.91
2023-03-12T01:04:54.896Z,94124.44
2023-03-12T01:07:34.941Z,94130.25
2023-03-12T01:10:16.847Z,94133.53
2023-03-12T01:13:03.869Z,94133.56
2023-03-12T01:15:37.236Z,94133.56
2023-03-12T01:18:23.898Z,94145.22
2023-03-12T01:20:57.366Z,94138.53
2023-03-12T01:23:43.879Z,94148.50
2023-03-12T01:26:17.717Z,94148.50
2023-03-12T01:29:04.853Z,94151.84
2023-03-12T01:31:38.341Z,94150.97
2023-03-12T01:34:25.892Z,94152.72
2023-03-12T01:36:59.439Z,94161.88
2023-03-12T01:39:45.858Z,94167.72
2023-03-12T01:42:19.301Z,94164.34
2023-03-12T01:45:15.884Z,94171.03
2023-03-12T01:47:55.877Z,94181.84
2023-03-12T01:50:42.885Z,94179.25
2023-03-12T01:53:17.035Z,94185.00
2023-03-12T01:56:04.929Z,94188.31
2023-03-12T01:58:41.044Z,94182.34
2023-03-12T02:01:30.926Z,94192.38
2023-03-12T02:04:10.927Z,94197.41
2023-03-12T02:07:11.865Z,94206.63
2023-03-12T02:09:48.730Z,94203.31
2023-03-12T02:12:35.881Z,94206.72
2023-03-12T02:15:16.861Z,94214.31
2023-03-12T02:17:56.999Z,94216.91
2023-03-12T02:20:54.873Z,94216.06
2023-03-12T02:23:53.983Z,94211.13
2023-03-12T02:26:35.875Z,94219.50
2023-03-12T02:29:23.889Z,94222.91
2023-03-12T02:32:00.888Z,94212.84
2023-03-12T02:34:47.881Z,94222.81
2023-03-12T02:37:21.308Z,94221.19
2023-03-12T02:40:31.886Z,94226.25
2023-03-12T02:43:07.674Z,94241.28
2023-03-12T02:45:53.897Z,94233.81
2023-03-12T02:48:27.307Z,94232.94
2023-03-12T02:51:13.930Z,94248.75
2023-03-12T02:53:47.313Z,94251.25
2023-03-12T02:56:38.896Z,94247.03
2023-03-12T02:59:20.897Z,94261.13
2023-03-12T03:02:03.462Z,94258.69
2023-03-12T03:04:42.888Z,94259.53
2023-03-12T03:07:22.976Z,94269.50
2023-03-12T03:10:02.913Z,94276.13
2023-03-12T03:12:44.384Z,94282.78
2023-03-12T03:15:23.889Z,94283.56
2023-03-12T03:18:10.905Z,94285.31
2023-03-12T03:20:51.911Z,94295.28
2023-03-12T03:23:38.912Z,94294.38
2023-03-12T03:26:18.887Z,94299.28
2023-03-12T03:29:05.909Z,94300.94
2023-03-12T03:31:45.910Z,94305.78
2023-03-12T03:34:26.014Z,94307.22
2023-03-12T03:37:05.861Z,94313.88
2023-03-12T03:39:45.984Z,94307.09
2023-03-12T03:42:25.906Z,94312.84
2023-03-12T03:45:12.903Z,94326.06
2023-03-12T03:47:52.942Z,94325.16
2023-03-12T03:50:32.985Z,94327.56
2023-03-12T03:53:15.898Z,94332.38
2023-03-12T03:56:02.919Z,94334.78
2023-03-12T03:58:36.332Z,94332.94
2023-03-12T04:01:22.925Z,94333.63
2023-03-12T04:03:56.240Z,94346.06
2023-03-12T04:06:42.918Z,94335.13
2023-03-12T04:09:18.134Z,94338.38
2023-03-12T04:12:04.908Z,94331.59
2023-03-12T04:14:42.459Z,94340.72
2023-03-12T04:17:28.897Z,94339.81
2023-03-12T04:20:08.924Z,94341.31
2023-03-12T04:22:49.004Z,94345.34
2023-03-12T04:25:28.913Z,94342.56
2023-03-12T04:28:08.927Z,94338.28
2023-03-12T04:30:48.989Z,94340.59
2023-03-12T04:33:22.425Z,94346.34
2023-03-12T04:36:08.994Z,94341.25
2023-03-12T04:38:42.317Z,94352.03
2023-03-12T04:41:29.955Z,94347.75
2023-03-12T04:44:04.674Z,94358.47
2023-03-12T04:46:51.028Z,94350.97
2023-03-12T04:49:30.991Z,94365.84
2023-03-12T04:52:17.963Z,94373.16
2023-03-12T04:54:51.311Z,94374.72
2023-03-12T04:57:37.954Z,94372.13
2023-03-12T05:00:19.943Z,94379.56
2023-03-12T05:03:00.082Z,94380.28
2023-03-12T05:05:39.927Z,94376.94
2023-03-12T05:08:26.941Z,94385.97
2023-03-12T05:11:06.935Z,94380.91
2023-03-12T05:13:47.071Z,94384.97
2023-03-12T05:16:27.020Z,94392.41
2023-03-12T05:19:07.061Z,94399.69
2023-03-12T05:21:48.931Z,94403.88
2023-03-12T05:24:35.966Z,94410.50
2023-03-12T05:27:15.934Z,94413.81
2023-03-12T05:29:56.037Z,94413.00
2023-03-12T05:32:36.029Z,94418.91
2023-03-12T05:35:16.044Z,94422.16
2023-03-12T05:37:55.999Z,94421.34
2023-03-12T05:40:43.988Z,94422.22
2023-03-12T05:43:23.941Z,94424.78
2023-03-12T05:46:16.043Z,94427.22
2023-03-12T05:48:55.949Z,94435.66
2023-03-12T05:51:42.958Z,94442.34
2023-03-12T05:54:17.597Z,94441.63
2023-03-12T05:57:03.989Z,94453.88
2023-03-12T05:59:37.308Z,94458.00
2023-03-12T06:02:23.965Z,94457.06
2023-03-12T06:04:58.480Z,94467.78
2023-03-12T06:07:45.005Z,94468.59
2023-03-12T06:10:19.361Z,94471.88
2023-03-12T06:13:05.973Z,94474.16
2023-03-12T06:15:39.355Z,94483.91
2023-03-12T06:18:25.974Z,94491.13
2023-03-12T06:21:14.231Z,94489.19
2023-03-12T06:24:08.002Z,94490.34
2023-03-12T06:26:54.972Z,94494.91
2023-03-12T06:29:28.118Z,94500.38
2023-03-12T06:32:15.129Z,94507.47
2023-03-12T06:34:54.963Z,94500.31
2023-03-12T06:37:41.965Z,94508.97
2023-03-12T06:40:22.956Z,94515.88
2023-03-12T06:43:09.981Z,94516.13
2023-03-12T06:45:43.064Z,94522.22
2023-03-12T06:48:37.969Z,94518.97
2023-03-12T06:51:24.983Z,94526.75
2023-03-12T06:53:58.069Z,94530.28
2023-03-12T06:56:44.954Z,94522.09
2023-03-12T06:59:21.844Z,94523.03
2023-03-12T07:02:09.014Z,94527.34
2023-03-12T07:04:42.089Z,94526.69
2023-03-12T07:07:28.968Z,94530.97
2023-03-12T07:10:08.991Z,94533.59
2023-03-12T07:12:55.978Z,94535.28
2023-03-12T07:15:30.106Z,94544.56
2023-03-12T07:18:17.997Z,94542.78
2023-03-12T07:20:51.144Z,94548.75
2023-03-12T07:23:37.977Z,94550.50
2023-03-12T07:26:18.972Z,94545.41
2023-03-12T07:29:05.993Z,94542.91
2023-03-12T07:31:39.205Z,94549.63
2023-03-12T07:34:26.061Z,94551.41
2023-03-12T07:37:00.068Z,94554.78
2023-03-12T07:39:47.011Z,94569.19
2023-03-12T07:42:20.107Z,94563.28
2023-03-12T07:45:07.030Z,94570.81
2023-03-12T07:47:40.185Z,94565.84
2023-03-12T07:50:27.030Z,94573.53
2023-03-12T07:53:06.984Z,94577.00
2023-03-12T07:56:01.100Z,94575.44
2023-03-12T07:58:48.030Z,94578.00
2023-03-12T08:01:28.115Z,94569.66
2023-03-12T08:04:22.024Z,94581.53
2023-03-12T08:07:09.458Z,94576.59
2023-03-12T08:09:43.269Z,94571.56
2023-03-12T08:12:30.048Z,94583.41
2023-03-12T08:15:10.010Z,94579.19
2023-03-12T08:18:03.982Z,94585.94
2023-03-12T08:20:51.001Z,94590.16
2023-03-12T08:23:30.990Z,94594.38
2023-03-12T08:26:25.006Z,94584.25
2023-03-12T08:29:12.018Z,94596.06
2023-03-12T08:32:03.403Z,94602.81
2023-03-12T08:34:51.022Z,94604.53
2023-03-12T08:37:31.002Z,94612.97
2023-03-12T08:40:22.001Z,94618.03
2023-03-12T08:43:02.016Z,94611.31
2023-03-12T08:45:57.026Z,94613.00
2023-03-12T08:48:51.007Z,94617.16
2023-03-12T08:51:45.014Z,94623.88
2023-03-12T08:54:32.033Z,94629.72
2023-03-12T08:57:12.019Z,94628.78
2023-03-12T08:59:59.053Z,94621.97
2023-03-12T09:02:34.085Z,94628.72
2023-03-12T09:05:21.039Z,94627.75
2023-03-12T09:08:02.053Z,94624.22
2023-03-12T09:10:55.044Z,94631.81
2023-03-12T09:13:45.318Z,94630.84
2023-03-12T09:16:36.048Z,94628.34
2023-03-12T09:19:09.186Z,94633.31
2023-03-12T09:21:56.020Z,94628.38
2023-03-12T09:24:29.128Z,94629.13
2023-03-12T09:27:16.043Z,94648.69
2023-03-12T09:29:59.301Z,94647.06
2023-03-12T09:32:47.141Z,94644.50
2023-03-12T09:35:22.173Z,94630.97
2023-03-12T09:38:10.016Z,94630.31
2023-03-12T09:40:44.140Z,94630.47
2023-03-12T09:44:10.002Z,94618.63
2023-03-12T09:47:01.106Z,94633.84
2023-03-12T09:50:04.020Z,94635.59
2023-03-12T09:53:34.042Z,94621.25
2023-03-12T09:56:32.043Z,94623.00
2023-03-12T09:59:26.036Z,94613.72
2023-03-12T10:02:39.024Z,94615.44
2023-03-12T10:05:29.060Z,94618.00
2023-03-12T10:08:24.425Z,94605.34
2023-03-12T10:11:15.044Z,94591.00
2023-03-12T10:14:07.142Z,94607.03
2023-03-12T10:17:24.021Z,94607.03
2023-03-12T10:20:17.054Z,94604.47
2023-03-12T10:23:22.032Z,94612.09
2023-03-12T10:26:23.044Z,94614.66
2023-03-12T10:29:00.259Z,94608.75
2023-03-12T10:32:02.088Z,94613.00
2023-03-12T10:34:59.051Z,94604.56
2023-03-12T10:37:52.065Z,94606.22
2023-03-12T10:40:31.228Z,94609.63
2023-03-12T10:43:18.068Z,94611.28
2023-03-12T10:46:20.063Z,94601.19
2023-03-12T10:49:37.052Z,94612.16
2023-03-12T10:52:29.066Z,94610.47
2023-03-12T10:59:05.079Z,94602.88
2023-03-12T11:01:56.094Z,94602.03
2023-03-12T11:04:37.158Z,94596.97
2023-03-12T11:07:39.061Z,94606.25
2023-03-12T11:10:22.110Z,94602.00
2023-03-12T11:13:19.057Z,94595.28
2023-03-12T11:16:24.180Z,94592.75
2023-03-12T11:19:13.061Z,94584.28
2023-03-12T11:22:14.062Z,94602.00
2023-03-12T11:25:13.070Z,94603.69
2023-03-12T11:27:56.237Z,94590.22
2023-03-12T11:30:46.111Z,94587.69
2023-03-12T11:33:20.171Z,94591.91
2023-03-12T11:36:25.081Z,94580.94
2023-03-12T11:39:10.219Z,94588.53
2023-03-12T11:42:00.079Z,94588.53
2023-03-12T11:44:58.366Z,94588.53
2023-03-12T11:47:57.065Z,94580.94
2023-03-12T11:50:43.095Z,94574.16
2023-03-12T11:53:51.075Z,94579.22
2023-03-12T11:56:40.267Z,94576.69
2023-03-12T11:59:30.279Z,94578.34
2023-03-12T12:02:20.487Z,94580.84
2023-03-12T12:05:13.084Z,94583.41
2023-03-12T12:08:04.199Z,94585.09
2023-03-12T12:11:15.080Z,94601.97
2023-03-12T12:13:59.162Z,94602.81
2023-03-12T12:17:08.153Z,94605.38
2023-03-12T12:19:59.173Z,94595.22
2023-03-12T12:23:09.095Z,94601.16
2023-03-12T12:25:53.201Z,94599.47
2023-03-12T12:28:49.097Z,94607.09
2023-03-12T12:31:52.197Z,94609.63
2023-03-12T12:35:07.112Z,94616.34
2023-03-12T12:38:05.235Z,94609.59
2023-03-12T12:40:58.101Z,94607.94
2023-03-12T12:43:46.097Z,94607.91
2023-03-12T12:46:43.102Z,94608.78
2023-03-12T12:49:49.105Z,94612.16
2023-03-12T12:52:43.075Z,94607.91
2023-03-12T12:55:39.102Z,94604.56
2023-03-12T12:58:26.201Z,94612.13
2023-03-12T13:01:14.128Z,94603.72
2023-03-12T13:03:52.234Z,94606.25
2023-03-12T13:07:07.124Z,94614.69
2023-03-12T13:09:45.213Z,94615.50
2023-03-12T13:12:32.155Z,94602.84
2023-03-12T13:15:14.120Z,94605.38
2023-03-12T13:18:32.125Z,94596.97
2023-03-12T13:21:28.120Z,94596.94
2023-03-12T13:24:29.217Z,94592.72
2023-03-12T13:27:32.131Z,94602.84
2023-03-12T13:30:05.274Z,94612.09
2023-03-12T13:32:55.141Z,94612.13
2023-03-12T13:35:28.260Z,94608.75
2023-03-12T13:38:24.113Z,94612.97
2023-03-12T13:41:22.139Z,94615.47
2023-03-12T13:44:34.137Z,94623.94
2023-03-12T13:47:26.224Z,94618.88
2023-03-12T13:50:20.118Z,94612.97
2023-03-12T13:53:04.172Z,94616.34
2023-03-12T13:55:56.137Z,94623.09
2023-03-12T13:58:29.256Z,94622.25
2023-03-12T14:01:25.209Z,94618.84
2023-03-12T14:04:07.232Z,94616.34
2023-03-12T14:07:33.139Z,94622.22
2023-03-12T14:10:16.146Z,94624.78
2023-03-12T14:13:28.135Z,94623.91
2023-03-12T14:16:33.207Z,94622.25
2023-03-12T14:19:14.155Z,94636.53
2023-03-12T14:22:13.125Z,94628.16
2023-03-12T14:25:11.160Z,94623.09
2023-03-12T14:27:58.171Z,94623.91
2023-03-12T14:30:48.215Z,94622.22
2023-03-12T14:33:47.145Z,94626.44
2023-03-12T14:36:28.265Z,94628.94
2023-03-12T14:39:27.152Z,94613.78
2023-03-12T14:42:15.153Z,94609.56
2023-03-12T14:45:08.170Z,94612.91
2023-03-12T14:47:59.169Z,94607.88
2023-03-12T14:50:55.257Z,94612.09
2023-03-12T14:53:46.154Z,94609.56
2023-03-12T14:56:47.152Z,94614.63
2023-03-12T14:59:47.170Z,94611.22
2023-03-12T15:02:37.160Z,94612.91
2023-03-12T15:05:11.347Z,94608.69
2023-03-12T15:08:09.151Z,94621.34
2023-03-12T15:10:44.251Z,94616.28
2023-03-12T15:13:34.157Z,94615.44
2023-03-12T15:16:07.340Z,94606.16
2023-03-12T15:18:56.164Z,94607.00
2023-03-12T15:21:37.154Z,94608.69
2023-03-12T15:24:31.164Z,94608.72
2023-03-12T15:27:35.176Z,94608.69
2023-03-12T15:30:15.172Z,94620.50
2023-03-12T15:33:24.170Z,94632.31
2023-03-12T15:36:21.170Z,94634.00
2023-03-12T15:39:37.264Z,94639.06
2023-03-12T15:42:24.393Z,94641.56
2023-03-12T15:45:11.164Z,94647.44
2023-03-12T15:47:47.268Z,94660.09
2023-03-12T15:50:43.225Z,94657.56
2023-03-12T15:53:19.274Z,94656.69
2023-03-12T15:56:27.188Z,94660.06
2023-03-12T15:59:38.171Z,94665.09
2023-03-12T16:02:49.196Z,94676.03
2023-03-12T16:05:39.194Z,94683.63
2023-03-12T16:08:21.281Z,94688.66
2023-03-12T16:11:08.190Z,94691.16
2023-03-12T16:13:42.058Z,94697.06
2023-03-12T16:16:29.267Z,94697.00
2023-03-12T16:19:02.384Z,94700.38
2023-03-12T16:21:50.180Z,94703.75
2023-03-12T16:24:30.210Z,94698.66
2023-03-12T16:27:32.926Z,94694.44
2023-03-12T16:30:42.188Z,94696.09
2023-03-12T16:33:20.282Z,94685.13
2023-03-12T16:36:07.216Z,94683.41
2023-03-12T16:38:47.190Z,94682.53
2023-03-12T16:41:42.195Z,94685.06
2023-03-12T16:44:36.187Z,94693.47
2023-03-12T16:47:23.186Z,94694.28
2023-03-12T16:50:03.203Z,94690.88
2023-03-12T16:52:53.183Z,94691.69
2023-03-12T16:55:29.315Z,94680.69
2023-03-12T16:58:20.187Z,94689.94
2023-03-12T17:01:01.232Z,94690.78
2023-03-12T17:03:57.653Z,94694.13
2023-03-12T17:06:46.188Z,94699.97
2023-03-12T17:09:19.302Z,94713.41
2023-03-12T17:12:06.198Z,94728.47
2023-03-12T17:14:47.207Z,94735.16
2023-03-12T17:17:34.289Z,94741.00
2023-03-12T17:20:10.178Z,94742.59
2023-03-12T17:22:57.192Z,94750.13
2023-03-12T17:25:34.305Z,94763.56
2023-03-12T17:28:22.228Z,94772.78
2023-03-12T17:30:55.608Z,94770.19
2023-03-12T17:33:42.212Z,94763.44
2023-03-12T17:36:16.317Z,94773.50
2023-03-12T17:39:03.195Z,94753.25
2023-03-12T17:41:39.255Z,94759.97
2023-03-12T17:44:26.203Z,94750.66
2023-03-12T17:47:06.272Z,94772.44
2023-03-12T17:49:53.205Z,94766.50
2023-03-12T17:52:33.199Z,94755.47
2023-03-12T17:55:27.235Z,94761.28
2023-03-12T17:58:14.200Z,94765.41
2023-03-12T18:00:47.339Z,94770.41
2023-03-12T18:03:34.323Z,94769.50
2023-03-12T18:06:15.232Z,94770.25
2023-03-12T18:09:09.270Z,94755.94
2023-03-12T18:11:56.301Z,94750.78
2023-03-12T18:14:29.335Z,94754.94
2023-03-12T18:17:16.243Z,94760.75
2023-03-12T18:19:49.470Z,94764.91
2023-03-12T18:22:36.247Z,94754.81
2023-03-12T18:25:09.408Z,94758.19
2023-03-12T18:27:56.748Z,94756.56
2023-03-12T18:30:37.232Z,94744.75
2023-03-12T18:33:24.239Z,94746.44
2023-03-12T18:36:04.281Z,94735.53
2023-03-12T18:38:58.244Z,94738.00
2023-03-12T18:41:45.223Z,94736.38
2023-03-12T18:44:18.322Z,94735.47
2023-03-12T18:47:05.368Z,94735.44
2023-03-12T18:49:38.362Z,94727.00
2023-03-12T18:52:25.280Z,94726.94
2023-03-12T18:54:58.412Z,94731.09
2023-03-12T18:57:45.233Z,94739.47
2023-03-12T19:00:21.814Z,94739.44
2023-03-12T19:03:08.341Z,94738.53
2023-03-12T19:05:48.257Z,94751.09
2023-03-12T19:08:36.257Z,94757.75
2023-03-12T19:11:21.255Z,94750.13
2023-03-12T19:14:15.249Z,94756.72
2023-03-12T19:17:02.394Z,94758.31
2023-03-12T19:19:42.263Z,94757.44
2023-03-12T19:22:32.240Z,94759.03
2023-03-12T19:25:12.280Z,94753.94
2023-03-12T19:27:59.312Z,94750.53
2023-03-12T19:30:40.253Z,94752.97
2023-03-12T19:33:35.315Z,94750.38
2023-03-12T19:36:29.283Z,94757.84
2023-03-12T19:39:21.547Z,94762.78
2023-03-12T19:42:05.248Z,94768.56
2023-03-12T19:44:52.280Z,94766.00
2023-03-12T19:47:26.824Z,94767.66
2023-03-12T19:50:15.244Z,94759.19
2023-03-12T19:52:48.453Z,94759.94
2023-03-12T19:55:35.365Z,94766.56
2023-03-12T19:58:16.317Z,94760.66
2023-03-12T20:01:14.261Z,94777.41
2023-03-12T20:04:01.284Z,94783.22
2023-03-12T20:06:34.374Z,94794.91
2023-03-12T20:09:21.289Z,94796.63
2023-03-12T20:12:01.259Z,94791.59
2023-03-12T20:14:48.289Z,94801.66
2023-03-12T20:17:22.391Z,94804.16
2023-03-12T20:20:09.260Z,94783.22
2023-03-12T20:22:50.263Z,94776.59
2023-03-12T20:25:44.250Z,94772.34
2023-03-12T20:28:31.291Z,94767.28
2023-03-12T20:31:04.373Z,94778.94
2023-03-12T20:33:51.312Z,94771.41
2023-03-12T20:36:24.420Z,94778.06
2023-03-12T20:39:11.283Z,94773.03
2023-03-12T20:41:51.290Z,94759.63
2023-03-12T20:44:38.303Z,94763.91
2023-03-12T20:47:11.402Z,94758.03
2023-03-12T20:50:05.333Z,94763.06
2023-03-12T20:52:59.302Z,94756.31
2023-03-12T20:55:53.327Z,94757.09
2023-03-12T20:58:47.282Z,94749.59
2023-03-12T21:01:41.345Z,94758.03
2023-03-12T21:04:28.302Z,94772.28
2023-03-12T21:07:01.399Z,94784.06
2023-03-12T21:09:48.358Z,94773.16
2023-03-12T21:12:21.379Z,94778.22
2023-03-12T21:15:12.322Z,94774.06
2023-03-12T21:17:46.465Z,94774.09
2023-03-12T21:20:33.291Z,94777.47
2023-03-12T21:23:13.369Z,94772.44
2023-03-12T21:26:15.347Z,94764.09
2023-03-12T21:29:02.321Z,94768.38
2023-03-12T21:31:35.892Z,94764.22
2023-03-12T21:34:22.269Z,94751.72
2023-03-12T21:36:55.483Z,94753.44
2023-03-12T21:39:42.291Z,94752.56
2023-03-12T21:42:15.391Z,94751.72
2023-03-12T21:45:02.316Z,94750.13
2023-03-12T21:47:35.460Z,94758.59
2023-03-12T21:50:29.358Z,94754.44
2023-03-12T21:53:24.230Z,94747.84
2023-03-12T21:56:20.347Z,94744.53
2023-03-12T21:59:14.328Z,94740.38
2023-03-12T22:02:08.305Z,94732.84
2023-03-12T22:04:58.308Z,94721.97
2023-03-12T22:07:38.322Z,94718.63
2023-03-12T22:10:25.305Z,94723.66
2023-03-12T22:13:05.299Z,94723.66
2023-03-12T22:16:08.527Z,94728.72
2023-03-12T22:18:55.343Z,94715.31
2023-03-12T22:21:29.459Z,94704.44
2023-03-12T22:24:17.364Z,94703.59
2023-03-12T22:26:59.436Z,94702.78
2023-03-12T22:29:53.318Z,94707.03
2023-03-12T22:32:40.384Z,94712.03
2023-03-12T22:35:14.451Z,94708.69
2023-03-12T22:38:01.301Z,94712.94
2023-03-12T22:40:34.615Z,94712.06
2023-03-12T22:43:22.455Z,94719.63
2023-03-12T22:46:00.392Z,94708.72
2023-03-12T22:48:47.326Z,94714.59
2023-03-12T22:51:28.322Z,94713.81
2023-03-12T22:54:15.345Z,94705.44
2023-03-12T22:56:48.409Z,94708.81
2023-03-12T22:59:35.320Z,94709.63
2023-03-12T23:02:08.671Z,94713.88
2023-03-12T23:04:55.417Z,94720.63
2023-03-12T23:07:29.436Z,94721.44
2023-03-12T23:10:34.325Z,94727.28
2023-03-12T23:13:09.387Z,94725.66
2023-03-12T23:15:56.326Z,94722.25
2023-03-12T23:18:29.412Z,94718.13
2023-03-12T23:21:19.328Z,94725.72
2023-03-12T23:24:00.312Z,94725.75
2023-03-12T23:26:48.398Z,94715.69
2023-03-12T23:29:21.512Z,94719.03
2023-03-12T23:32:08.338Z,94724.91
2023-03-12T23:34:41.433Z,94730.81
2023-03-12T23:37:28.326Z,94733.38
2023-03-12T23:40:08.334Z,94734.22
2023-03-12T23:42:55.359Z,94737.59
2023-03-12T23:45:35.426Z,94736.78
2023-03-12T23:48:29.334Z,94730.06
2023-03-12T23:51:27.348Z,94728.41
2023-03-12T23:54:14.394Z,94736.81
2023-03-12T23:56:48.527Z,94742.72
2023-03-12T23:59:35.360Z,94735.22
